sensor_id;sensor_type;location;lat;lon;timestamp;pressure;altitude;pressure_sealevel;temperature;humidity
58739;BME280;44512;53.046;18.604;2022-11-20T00:04:09;101275.13;;;1.10;63.68
58739;BME280;44512;53.046;18.604;2022-11-20T00:14:36;101275.70;;;1.14;63.66
58739;BME280;44512;53.046;18.604;2022-11-20T00:25:05;101276.44;;;1.16;63.56
58739;BME280;44512;53.046;18.604;2022-11-20T00:35:33;101280.09;;;1.15;63.46
58739;BME280;44512;53.046;18.604;2022-11-20T00:46:04;101273.54;;;1.08;63.86
58739;BME280;44512;53.046;18.604;2022-11-20T00:56:30;101268.69;;;1.13;64.11
58739;BME280;44512;53.046;18.604;2022-11-20T01:06:58;101278.37;;;1.14;64.15
58739;BME280;44512;53.046;18.604;2022-11-20T01:17:27;101259.84;;;1.12;64.02
58739;BME280;44512;53.046;18.604;2022-11-20T01:27:55;101264.33;;;1.12;64.10
58739;BME280;44512;53.046;18.604;2022-11-20T01:38:24;101248.34;;;1.12;64.04
58739;BME280;44512;53.046;18.604;2022-11-20T01:59:23;101257.55;;;1.08;63.90
58739;BME280;44512;53.046;18.604;2022-11-20T02:09:50;101260.48;;;1.04;64.07
58739;BME280;44512;53.046;18.604;2022-11-20T02:20:17;101254.04;;;1.07;64.03
58739;BME280;44512;53.046;18.604;2022-11-20T02:30:45;101235.65;;;1.04;64.08
58739;BME280;44512;53.046;18.604;2022-11-20T02:41:14;101238.41;;;1.02;64.08
58739;BME280;44512;53.046;18.604;2022-11-20T02:51:42;101240.71;;;1.07;64.08
58739;BME280;44512;53.046;18.604;2022-11-20T03:02:11;101230.88;;;1.08;64.01
58739;BME280;44512;53.046;18.604;2022-11-20T03:12:39;101239.16;;;1.04;64.20
58739;BME280;44512;53.046;18.604;2022-11-20T03:23:07;101234.80;;;1.03;64.41
58739;BME280;44512;53.046;18.604;2022-11-20T03:33:37;101237.33;;;1.05;64.51
58739;BME280;44512;53.046;18.604;2022-11-20T03:44:10;101227.52;;;1.06;64.61
58739;BME280;44512;53.046;18.604;2022-11-20T03:54:33;101226.91;;;1.02;64.70
58739;BME280;44512;53.046;18.604;2022-11-20T04:05:02;101231.66;;;0.98;64.93
58739;BME280;44512;53.046;18.604;2022-11-20T04:15:30;101225.60;;;0.96;65.04
58739;BME280;44512;53.046;18.604;2022-11-20T04:26:04;101217.37;;;0.99;65.19
58739;BME280;44512;53.046;18.604;2022-11-20T04:36:28;101217.09;;;1.02;65.29
58739;BME280;44512;53.046;18.604;2022-11-20T04:46:55;101220.49;;;1.04;65.27
58739;BME280;44512;53.046;18.604;2022-11-20T04:57:24;101207.02;;;1.06;65.23
58739;BME280;44512;53.046;18.604;2022-11-20T05:07:52;101207.16;;;1.04;65.25
58739;BME280;44512;53.046;18.604;2022-11-20T05:18:20;101206.19;;;1.06;65.23
58739;BME280;44512;53.046;18.604;2022-11-20T05:28:50;101197.48;;;1.03;65.30
58739;BME280;44512;53.046;18.604;2022-11-20T05:39:17;101193.23;;;1.01;65.44
58739;BME280;44512;53.046;18.604;2022-11-20T05:49:49;101187.66;;;1.04;65.47
58739;BME280;44512;53.046;18.604;2022-11-20T06:00:15;101193.56;;;1.08;65.45
58739;BME280;44512;53.046;18.604;2022-11-20T06:10:44;101192.02;;;1.05;65.49
58739;BME280;44512;53.046;18.604;2022-11-20T06:21:24;101193.84;;;1.04;65.59
58739;BME280;44512;53.046;18.604;2022-11-20T06:31:43;101190.33;;;1.04;65.61
58739;BME280;44512;53.046;18.604;2022-11-20T06:42:08;101185.00;;;1.04;65.59
58739;BME280;44512;53.046;18.604;2022-11-20T06:52:36;101190.19;;;1.06;65.67
58739;BME280;44512;53.046;18.604;2022-11-20T07:03:06;101186.54;;;1.07;65.74
58739;BME280;44512;53.046;18.604;2022-11-20T07:13:34;101179.28;;;1.09;65.78
58739;BME280;44512;53.046;18.604;2022-11-20T07:24:02;101183.04;;;1.06;65.95
58739;BME280;44512;53.046;18.604;2022-11-20T07:34:30;101179.28;;;1.09;65.93
58739;BME280;44512;53.046;18.604;2022-11-20T07:44:59;101173.21;;;1.07;65.92
58739;BME280;44512;53.046;18.604;2022-11-20T07:55:27;101181.21;;;1.07;65.96
58739;BME280;44512;53.046;18.604;2022-11-20T08:05:58;101169.46;;;1.09;66.13
58739;BME280;44512;53.046;18.604;2022-11-20T08:16:24;101175.12;;;1.16;65.87
58739;BME280;44512;53.046;18.604;2022-11-20T08:26:53;101159.13;;;1.16;65.74
58739;BME280;44512;53.046;18.604;2022-11-20T08:37:21;101154.31;;;1.10;65.55
58739;BME280;44512;53.046;18.604;2022-11-20T08:47:50;101155.01;;;1.12;65.78
58739;BME280;44512;53.046;18.604;2022-11-20T08:58:18;101147.62;;;1.15;65.72
58739;BME280;44512;53.046;18.604;2022-11-20T09:08:47;101149.74;;;1.00;65.75
58739;BME280;44512;53.046;18.604;2022-11-20T09:19:15;101137.26;;;1.01;66.18
58739;BME280;44512;53.046;18.604;2022-11-20T09:29:43;101122.31;;;1.10;66.28
58739;BME280;44512;53.046;18.604;2022-11-20T09:40:19;101124.38;;;1.27;65.92
58739;BME280;44512;53.046;18.604;2022-11-20T09:50:57;101123.60;;;1.36;65.69
58739;BME280;44512;53.046;18.604;2022-11-20T10:01:15;101114.38;;;1.40;65.58
58739;BME280;44512;53.046;18.604;2022-11-20T10:11:46;101113.84;;;1.46;65.54
58739;BME280;44512;53.046;18.604;2022-11-20T10:22:34;101100.30;;;1.38;65.70
58739;BME280;44512;53.046;18.604;2022-11-20T10:32:40;101096.02;;;1.47;65.82
58739;BME280;44512;53.046;18.604;2022-11-20T11:04:00;101091.66;;;1.46;66.11
58739;BME280;44512;53.046;18.604;2022-11-20T11:14:28;101082.83;;;1.55;66.14
58739;BME280;44512;53.046;18.604;2022-11-20T11:24:58;101078.81;;;1.61;66.04
58739;BME280;44512;53.046;18.604;2022-11-20T11:35:28;101068.44;;;1.67;66.05
58739;BME280;44512;53.046;18.604;2022-11-20T11:56:23;101060.19;;;1.80;66.11
58739;BME280;44512;53.046;18.604;2022-11-20T12:07:03;101055.29;;;1.85;66.13
58739;BME280;44512;53.046;18.604;2022-11-20T12:17:19;101050.27;;;1.92;66.16
58739;BME280;44512;53.046;18.604;2022-11-20T12:49:08;101019.64;;;2.05;66.31
58739;BME280;44512;53.046;18.604;2022-11-20T13:09:47;101003.22;;;2.10;66.79
58739;BME280;44512;53.046;18.604;2022-11-20T13:20:16;100999.14;;;2.16;66.83
58739;BME280;44512;53.046;18.604;2022-11-20T13:41:08;100973.58;;;2.23;66.90
58739;BME280;44512;53.046;18.604;2022-11-20T13:51:44;100974.00;;;2.28;66.83
58739;BME280;44512;53.046;18.604;2022-11-20T14:02:12;100959.51;;;2.30;66.81
58739;BME280;44512;53.046;18.604;2022-11-20T14:12:33;100961.48;;;2.28;66.85
58739;BME280;44512;53.046;18.604;2022-11-20T14:23:01;100953.59;;;2.27;66.74
58739;BME280;44512;53.046;18.604;2022-11-20T14:33:32;100951.64;;;2.29;66.45
58739;BME280;44512;53.046;18.604;2022-11-20T14:43:59;100947.29;;;2.28;66.11
58739;BME280;44512;53.046;18.604;2022-11-20T14:54:26;100952.64;;;2.28;66.01
58739;BME280;44512;53.046;18.604;2022-11-20T15:04:59;100942.64;;;2.30;66.05
58739;BME280;44512;53.046;18.604;2022-11-20T15:25:51;100930.84;;;2.23;66.79
58739;BME280;44512;53.046;18.604;2022-11-20T15:36:20;100912.41;;;2.20;67.24
58739;BME280;44512;53.046;18.604;2022-11-20T15:46:48;100913.98;;;2.22;67.34
58739;BME280;44512;53.046;18.604;2022-11-20T15:57:17;100903.00;;;2.25;67.42
58739;BME280;44512;53.046;18.604;2022-11-20T16:07:45;100913.11;;;2.22;67.42
58739;BME280;44512;53.046;18.604;2022-11-20T16:18:18;100907.77;;;2.22;67.70
58739;BME280;44512;53.046;18.604;2022-11-20T16:28:43;100902.43;;;2.22;67.73
58739;BME280;44512;53.046;18.604;2022-11-20T16:39:13;100906.81;;;2.23;67.81
58739;BME280;44512;53.046;18.604;2022-11-20T16:54:42;100902.58;;;2.20;67.72
58739;BME280;44512;53.046;18.604;2022-11-20T17:05:10;100910.17;;;2.25;67.55
58739;BME280;44512;53.046;18.604;2022-11-20T17:15:38;100903.84;;;2.06;67.22
58739;BME280;44512;53.046;18.604;2022-11-20T17:26:12;100895.71;;;1.98;67.34
58739;BME280;44512;53.046;18.604;2022-11-20T17:36:36;100879.96;;;1.95;67.23
58739;BME280;44512;53.046;18.604;2022-11-20T17:47:04;100876.60;;;1.93;67.18
58739;BME280;44512;53.046;18.604;2022-11-20T17:57:32;100863.83;;;1.87;67.23
58739;BME280;44512;53.046;18.604;2022-11-20T18:08:01;100859.17;;;1.79;67.35
58739;BME280;44512;53.046;18.604;2022-11-20T18:18:29;100845.14;;;1.77;67.27
58739;BME280;44512;53.046;18.604;2022-11-20T18:28:58;100851.05;;;1.81;67.20
58739;BME280;44512;53.046;18.604;2022-11-20T18:39:26;100844.99;;;1.89;67.21
58739;BME280;44512;53.046;18.604;2022-11-20T18:49:57;100841.59;;;1.96;67.05
58739;BME280;44512;53.046;18.604;2022-11-20T19:00:23;100834.72;;;2.03;66.79
58739;BME280;44512;53.046;18.604;2022-11-20T19:10:51;100838.80;;;2.07;66.41
58739;BME280;44512;53.046;18.604;2022-11-20T19:21:22;100831.74;;;2.06;66.03
58739;BME280;44512;53.046;18.604;2022-11-20T19:31:49;100826.56;;;2.05;65.83
58739;BME280;44512;53.046;18.604;2022-11-20T19:42:17;100823.32;;;2.01;65.84
58739;BME280;44512;53.046;18.604;2022-11-20T19:52:45;100829.66;;;2.00;65.86
58739;BME280;44512;53.046;18.604;2022-11-20T20:03:14;100822.63;;;1.99;65.80
58739;BME280;44512;53.046;18.604;2022-11-20T20:13:43;100819.29;;;1.97;65.79
58739;BME280;44512;53.046;18.604;2022-11-20T20:24:11;100827.30;;;1.97;65.65
58739;BME280;44512;53.046;18.604;2022-11-20T20:34:39;100833.89;;;1.93;65.38
58739;BME280;44512;53.046;18.604;2022-11-20T20:45:08;100838.66;;;1.80;65.03
58739;BME280;44512;53.046;18.604;2022-11-20T20:55:36;100838.13;;;1.86;65.10
58739;BME280;44512;53.046;18.604;2022-11-20T21:06:06;100840.34;;;1.91;65.01
58739;BME280;44512;53.046;18.604;2022-11-20T21:16:33;100832.75;;;1.96;64.86
58739;BME280;44512;53.046;18.604;2022-11-20T21:27:04;100815.05;;;1.95;64.57
58739;BME280;44512;53.046;18.604;2022-11-20T21:37:30;100808.88;;;1.94;64.30
58739;BME280;44512;53.046;18.604;2022-11-20T21:47:59;100803.70;;;1.93;64.09
58739;BME280;44512;53.046;18.604;2022-11-20T21:58:27;100800.18;;;1.92;63.75
58739;BME280;44512;53.046;18.604;2022-11-20T22:08:55;100802.43;;;1.87;63.33
58739;BME280;44512;53.046;18.604;2022-11-20T22:19:24;100799.62;;;1.79;62.96
58739;BME280;44512;53.046;18.604;2022-11-20T22:29:52;100800.46;;;1.70;62.71
58739;BME280;44512;53.046;18.604;2022-11-20T22:40:21;100794.28;;;1.60;62.50
58739;BME280;44512;53.046;18.604;2022-11-20T22:50:49;100801.59;;;1.48;62.09
58739;BME280;44512;53.046;18.604;2022-11-20T23:01:22;100808.16;;;1.34;61.52
58739;BME280;44512;53.046;18.604;2022-11-20T23:11:49;100794.28;;;1.21;61.39
58739;BME280;44512;53.046;18.604;2022-11-20T23:22:15;100785.68;;;1.08;61.15
58739;BME280;44512;53.046;18.604;2022-11-20T23:32:43;100756.63;;;0.95;61.11
58739;BME280;44512;53.046;18.604;2022-11-20T23:43:12;100763.91;;;0.83;61.00
58739;BME280;44512;53.046;18.604;2022-11-20T23:53:40;100759.65;;;0.71;60.80
